createdAt,value
2022-08-11T00:02:00.503Z,3.80
2022-08-11T00:04:34.543Z,4.90
2022-08-11T00:07:04.401Z,5.20
2022-08-11T00:09:39.512Z,4.53
2022-08-11T00:12:14.870Z,4.53
2022-08-11T00:14:43.256Z,4.57
2022-08-11T00:17:14.774Z,4.63
2022-08-11T00:20:14.492Z,4.60
2022-08-11T00:22:34.386Z,4.75
2022-08-11T00:25:11.168Z,4.57
2022-08-11T00:27:40.034Z,5.13
2022-08-11T00:30:12.095Z,5.30
2022-08-11T00:32:44.937Z,5.18
2022-08-11T00:35:51.249Z,5.15
2022-08-11T00:38:03.453Z,4.82
2022-08-11T00:41:03.955Z,5.38
2022-08-11T00:43:48.078Z,5.05
2022-08-11T00:46:26.375Z,4.88
2022-08-11T00:49:12.460Z,5.00
2022-08-11T00:52:20.713Z,4.57
2022-08-11T00:55:27.049Z,4.63
2022-08-11T00:58:21.898Z,4.80
2022-08-11T01:00:58.681Z,5.72
2022-08-11T01:03:58.793Z,5.18
2022-08-11T01:06:49.544Z,5.07
2022-08-11T01:09:50.405Z,4.95
2022-08-11T01:12:53.204Z,5.10
2022-08-11T01:15:55.670Z,4.68
2022-08-11T01:18:46.051Z,4.85
2022-08-11T01:21:46.682Z,5.03
2022-08-11T01:24:26.553Z,4.72
2022-08-11T01:27:21.310Z,4.90
2022-08-11T01:30:19.836Z,4.35
2022-08-11T01:33:20.171Z,5.13
2022-08-11T01:36:33.316Z,5.32
2022-08-11T01:39:18.778Z,4.95
2022-08-11T01:42:22.946Z,4.65
2022-08-11T01:45:15.207Z,5.10
2022-08-11T01:48:21.431Z,4.53
2022-08-11T01:51:31.912Z,5.68
2022-08-11T01:54:17.294Z,5.30
2022-08-11T01:57:10.408Z,5.30
2022-08-11T01:59:49.446Z,4.80
2022-08-11T02:02:54.051Z,4.78
2022-08-11T02:06:02.305Z,5.15
2022-08-11T02:08:50.352Z,5.25
2022-08-11T02:11:35.271Z,4.88
2022-08-11T02:14:28.033Z,4.22
2022-08-11T02:17:23.011Z,5.20
2022-08-11T02:20:15.245Z,5.70
2022-08-11T02:23:25.053Z,4.83
2022-08-11T02:26:24.818Z,4.63
2022-08-11T02:29:17.870Z,4.63
2022-08-11T02:32:33.671Z,4.80
2022-08-11T02:35:09.808Z,5.00
2022-08-11T02:37:48.832Z,5.15
2022-08-11T02:40:42.882Z,4.97
2022-08-11T02:43:23.533Z,4.97
2022-08-11T02:46:18.133Z,5.72
2022-08-11T02:49:19.594Z,4.68
2022-08-11T02:52:14.218Z,5.10
2022-08-11T02:55:50.887Z,5.28
2022-08-11T02:58:37.074Z,5.32
2022-08-11T03:01:39.203Z,4.93
2022-08-11T03:04:17.823Z,5.20
2022-08-11T03:07:28.872Z,5.28
2022-08-11T03:10:23.612Z,5.53
2022-08-11T03:16:40.876Z,6.00
2022-08-11T03:19:40.180Z,6.80
2022-08-11T03:22:25.082Z,6.18
2022-08-11T03:25:03.888Z,6.47
2022-08-11T03:27:46.815Z,6.40
2022-08-11T03:30:17.986Z,5.68
2022-08-11T03:33:17.664Z,6.07
2022-08-11T03:36:17.153Z,6.13
2022-08-11T03:39:20.345Z,5.80
2022-08-11T03:42:16.354Z,5.55
2022-08-11T03:45:07.285Z,6.13
2022-08-11T03:48:02.537Z,5.65
2022-08-11T03:50:44.691Z,6.70
2022-08-11T03:53:28.261Z,5.70
2022-08-11T03:56:13.041Z,6.88
2022-08-11T03:59:18.800Z,5.93
2022-08-11T04:02:19.703Z,5.65
2022-08-11T04:05:14.474Z,4.90
2022-08-11T04:08:03.511Z,5.55
2022-08-11T04:11:10.043Z,4.90
2022-08-11T04:14:31.080Z,5.95
2022-08-11T04:16:58.801Z,5.07
2022-08-11T04:20:11.973Z,5.97
2022-08-11T04:23:03.455Z,5.07
2022-08-11T04:25:58.291Z,5.00
2022-08-11T04:28:31.421Z,5.22
2022-08-11T04:31:13.523Z,5.88
2022-08-11T04:34:40.955Z,4.95
2022-08-11T04:37:35.025Z,6.40
2022-08-11T04:40:08.007Z,5.53
2022-08-11T04:45:56.208Z,4.57
2022-08-11T04:49:12.474Z,4.07
2022-08-11T04:52:16.720Z,4.93
2022-08-11T04:55:40.365Z,4.25
2022-08-11T04:58:55.720Z,4.20
2022-08-11T05:01:43.983Z,5.10
2022-08-11T05:05:11.649Z,4.60
2022-08-11T05:08:17.716Z,4.47
2022-08-11T05:10:58.492Z,4.38
2022-08-11T05:14:17.851Z,4.00
2022-08-11T05:17:13.079Z,3.95
2022-08-11T05:20:05.463Z,3.72
2022-08-11T05:22:52.876Z,4.05
2022-08-11T05:26:45.123Z,2.92
2022-08-11T05:28:59.464Z,3.10
2022-08-11T05:31:53.804Z,3.05
2022-08-11T05:34:42.728Z,2.80
2022-08-11T05:37:34.529Z,2.50
2022-08-11T05:40:29.262Z,3.08
2022-08-11T05:43:20.479Z,2.80
2022-08-11T05:46:20.814Z,2.25
2022-08-11T05:49:08.391Z,2.40
2022-08-11T05:51:57.181Z,3.08
2022-08-11T05:54:51.266Z,2.70
2022-08-11T05:57:39.685Z,2.75
2022-08-11T06:00:14.954Z,2.40
2022-08-11T06:02:44.337Z,2.65
2022-08-11T06:05:12.347Z,2.53
2022-08-11T06:07:49.293Z,2.20
2022-08-11T06:10:36.470Z,2.20
2022-08-11T06:13:05.648Z,2.28
2022-08-11T06:15:43.678Z,2.42
2022-08-11T06:18:12.828Z,2.42
2022-08-11T06:20:55.299Z,2.90
2022-08-11T06:23:25.232Z,2.40
2022-08-11T06:25:56.538Z,2.30
2022-08-11T06:28:33.013Z,2.28
2022-08-11T06:31:00.670Z,1.92
2022-08-11T06:33:48.865Z,2.58
2022-08-11T06:36:28.093Z,2.00
2022-08-11T06:39:08.776Z,2.45
2022-08-11T06:41:57.678Z,2.00
2022-08-11T06:44:32.387Z,2.10
2022-08-11T06:47:08.941Z,2.30
2022-08-11T06:50:01.411Z,2.00
2022-08-11T06:52:37.104Z,1.73
2022-08-11T06:55:56.858Z,1.80
2022-08-11T06:58:18.215Z,2.15
2022-08-11T07:00:48.788Z,2.35
2022-08-11T07:03:21.789Z,1.70
2022-08-11T07:05:55.995Z,2.08
2022-08-11T07:08:59.842Z,1.77
2022-08-11T07:12:17.993Z,1.38
2022-08-11T07:15:10.575Z,1.70
2022-08-11T07:18:17.743Z,1.30
2022-08-11T07:21:03.386Z,1.85
2022-08-11T07:23:53.910Z,1.40
2022-08-11T07:26:42.367Z,1.10
2022-08-11T07:29:16.299Z,1.30
2022-08-11T07:31:51.920Z,1.20
2022-08-11T07:34:23.606Z,1.38
2022-08-11T07:36:53.803Z,1.48
2022-08-11T07:39:27.669Z,1.25
2022-08-11T07:41:58.435Z,1.20
2022-08-11T07:44:34.380Z,1.00
2022-08-11T07:47:21.000Z,1.38
2022-08-11T07:50:09.089Z,1.63
2022-08-11T07:52:38.406Z,1.25
2022-08-11T07:55:17.230Z,1.25
2022-08-11T07:58:16.499Z,1.45
2022-08-11T08:04:09.619Z,1.10
2022-08-11T08:06:56.590Z,2.08
2022-08-11T08:09:44.447Z,1.02
2022-08-11T08:12:31.803Z,1.00
2022-08-11T08:15:19.323Z,1.42
2022-08-11T08:18:20.943Z,0.70
2022-08-11T08:20:45.807Z,1.10
2022-08-11T08:23:13.699Z,2.05
2022-08-11T08:25:43.281Z,1.13
2022-08-11T08:28:21.163Z,1.92
2022-08-11T08:30:56.229Z,0.73
2022-08-11T08:33:30.419Z,0.60
2022-08-11T08:36:13.060Z,0.55
2022-08-11T08:38:42.367Z,0.70
2022-08-11T08:41:13.302Z,0.88
2022-08-11T08:43:49.574Z,0.80
2022-08-11T08:46:20.993Z,0.80
2022-08-11T08:48:49.168Z,1.20
2022-08-11T08:51:56.991Z,0.80
2022-08-11T08:54:34.302Z,0.90
2022-08-11T08:57:05.300Z,0.65
2022-08-11T08:59:47.495Z,0.73
2022-08-11T09:02:18.189Z,0.95
2022-08-11T09:04:46.900Z,1.00
2022-08-11T09:07:16.692Z,0.70
2022-08-11T09:09:45.580Z,1.55
2022-08-11T09:12:13.777Z,0.70
2022-08-11T09:15:03.372Z,0.75
2022-08-11T09:17:46.213Z,0.70
2022-08-11T09:20:19.752Z,0.52
2022-08-11T09:26:16.369Z,0.82
2022-08-11T09:28:45.319Z,0.50
2022-08-11T09:31:14.143Z,0.47
2022-08-11T09:33:43.094Z,0.70
2022-08-11T09:36:30.800Z,0.60
2022-08-11T09:39:17.218Z,0.63
2022-08-11T09:42:00.441Z,0.70
2022-08-11T09:44:49.463Z,0.80
2022-08-11T09:47:31.682Z,0.93
2022-08-11T09:50:01.741Z,1.15
2022-08-11T09:52:36.327Z,0.90
2022-08-11T09:55:11.094Z,0.82
2022-08-11T09:58:04.505Z,0.80
2022-08-11T10:03:12.484Z,0.77
2022-08-11T10:06:07.729Z,0.90
2022-08-11T10:08:38.007Z,0.80
2022-08-11T10:11:09.425Z,1.08
2022-08-11T10:14:33.032Z,1.45
2022-08-11T10:16:50.051Z,1.33
2022-08-11T10:19:19.367Z,1.42
2022-08-11T10:22:11.698Z,1.63
2022-08-11T10:25:00.338Z,1.20
2022-08-11T10:28:16.654Z,1.20
2022-08-11T10:30:33.492Z,1.38
2022-08-11T10:33:37.543Z,1.83
2022-08-11T10:36:16.418Z,1.63
2022-08-11T10:38:46.823Z,1.42
2022-08-11T10:41:33.259Z,1.05
2022-08-11T10:44:03.858Z,1.75
2022-08-11T10:46:50.455Z,0.80
2022-08-11T10:49:19.393Z,0.90
2022-08-11T10:52:06.003Z,1.17
2022-08-11T10:54:54.084Z,0.90
2022-08-11T10:57:41.116Z,1.10
2022-08-11T11:00:15.189Z,0.50
2022-08-11T11:03:16.846Z,0.70
2022-08-11T11:05:34.948Z,1.10
2022-08-11T11:08:31.322Z,0.70
2022-08-11T11:10:59.368Z,0.80
2022-08-11T11:13:55.177Z,0.60
2022-08-11T11:16:44.656Z,0.88
2022-08-11T11:19:15.314Z,0.75
2022-08-11T11:21:43.461Z,0.80
2022-08-11T11:24:43.514Z,0.70
2022-08-11T11:27:17.955Z,1.10
2022-08-11T11:30:10.626Z,1.08
2022-08-11T11:32:50.018Z,0.82
2022-08-11T11:35:31.931Z,0.90
2022-08-11T11:38:04.067Z,0.77
2022-08-11T11:40:33.232Z,0.73
2022-08-11T11:43:01.610Z,0.70
2022-08-11T11:45:29.009Z,0.85
2022-08-11T11:47:59.631Z,1.25
2022-08-11T11:50:31.563Z,1.20
2022-08-11T11:53:01.834Z,0.70
2022-08-11T11:55:30.544Z,0.60
2022-08-11T11:58:19.887Z,1.52
2022-08-11T12:01:10.556Z,0.40
2022-08-11T12:03:39.498Z,0.65
2022-08-11T12:06:09.295Z,0.80
2022-08-11T12:08:37.426Z,0.95
2022-08-11T12:11:26.226Z,0.88
2022-08-11T12:13:55.577Z,1.10
2022-08-11T12:16:34.770Z,0.68
2022-08-11T12:19:06.789Z,0.90
2022-08-11T12:21:36.964Z,0.82
2022-08-11T12:24:29.197Z,1.00
2022-08-11T12:27:17.719Z,0.65
2022-08-11T12:29:51.567Z,0.73
2022-08-11T12:32:30.268Z,0.75
2022-08-11T12:34:58.279Z,0.73
2022-08-11T12:37:30.830Z,0.60
2022-08-11T12:40:42.956Z,1.00
2022-08-11T12:43:38.979Z,1.20
2022-08-11T12:46:21.659Z,0.68
2022-08-11T12:49:14.301Z,1.17
2022-08-11T12:52:11.423Z,0.75
2022-08-11T12:55:02.410Z,0.68
2022-08-11T12:57:51.023Z,0.52
2022-08-11T13:00:38.171Z,0.70
2022-08-11T13:03:27.134Z,0.88
2022-08-11T13:05:57.185Z,0.65
2022-08-11T13:08:26.463Z,0.95
2022-08-11T13:11:13.691Z,0.73
2022-08-11T13:13:53.916Z,0.75
2022-08-11T13:16:57.896Z,0.60
2022-08-11T13:19:26.175Z,0.77
2022-08-11T13:21:53.660Z,0.68
2022-08-11T13:24:22.497Z,0.90
2022-08-11T13:26:51.063Z,1.00
2022-08-11T13:29:22.433Z,1.10
2022-08-11T13:31:50.740Z,1.70
2022-08-11T13:34:19.961Z,0.85
2022-08-11T13:36:52.538Z,1.40
2022-08-11T13:39:25.890Z,0.68
2022-08-11T13:41:59.449Z,0.90
2022-08-11T13:44:30.349Z,0.73
2022-08-11T13:47:04.405Z,0.70
2022-08-11T13:49:35.129Z,0.63
2022-08-11T13:52:04.387Z,0.90
2022-08-11T13:54:35.243Z,0.60
2022-08-11T13:57:09.031Z,0.82
2022-08-11T13:59:43.997Z,1.33
2022-08-11T14:02:29.093Z,0.85
2022-08-11T14:05:11.946Z,0.70
2022-08-11T14:07:42.102Z,0.70
2022-08-11T14:10:12.194Z,0.85
2022-08-11T14:13:01.635Z,2.47
2022-08-11T14:15:34.472Z,0.80
2022-08-11T14:18:08.206Z,0.55
2022-08-11T14:20:57.655Z,0.82
2022-08-11T14:23:46.197Z,0.68
2022-08-11T14:26:27.038Z,0.60
2022-08-11T14:28:59.704Z,0.70
2022-08-11T14:31:29.086Z,0.50
2022-08-11T14:34:02.060Z,0.57
2022-08-11T14:36:35.430Z,0.70
2022-08-11T14:39:13.089Z,0.40
2022-08-11T14:42:11.437Z,0.45
2022-08-11T14:45:11.195Z,0.70
2022-08-11T14:47:40.708Z,0.68
2022-08-11T14:50:14.090Z,1.33
2022-08-11T14:52:55.222Z,0.77
2022-08-11T14:55:43.369Z,0.80
2022-08-11T14:58:13.113Z,0.70
2022-08-11T15:00:41.810Z,1.00
2022-08-11T15:03:12.632Z,0.90
2022-08-11T15:05:58.403Z,0.60
2022-08-11T15:08:53.236Z,0.68
2022-08-11T15:11:42.525Z,0.65
2022-08-11T15:14:12.016Z,0.90
2022-08-11T15:17:03.098Z,0.88
2022-08-11T15:19:40.623Z,0.65
2022-08-11T15:22:28.695Z,0.70
2022-08-11T15:24:58.798Z,0.70
2022-08-11T15:27:45.722Z,0.90
2022-08-11T15:30:33.217Z,0.80
2022-08-11T15:33:29.523Z,0.70
2022-08-11T15:36:16.494Z,1.85
2022-08-11T15:38:54.883Z,1.00
2022-08-11T15:41:54.501Z,0.70
2022-08-11T15:45:02.791Z,0.57
2022-08-11T15:48:05.021Z,0.90
2022-08-11T15:50:34.593Z,0.65
2022-08-11T15:53:11.987Z,0.85
2022-08-11T15:55:39.859Z,0.90
2022-08-11T15:58:28.232Z,0.60
2022-08-11T16:01:15.611Z,0.60
2022-08-11T16:04:13.154Z,0.45
2022-08-11T16:06:53.321Z,0.47
2022-08-11T16:09:32.858Z,0.70
2022-08-11T16:12:19.221Z,0.68
2022-08-11T16:15:09.685Z,0.60
2022-08-11T16:17:48.794Z,0.60
2022-08-11T16:20:20.246Z,0.60
2022-08-11T16:22:57.247Z,0.60
2022-08-11T16:27:02.606Z,2.00
2022-08-11T16:28:22.080Z,0.52
2022-08-11T16:30:51.008Z,0.68
2022-08-11T16:33:48.646Z,0.80
2022-08-11T16:36:28.148Z,0.55
2022-08-11T16:39:00.138Z,0.73
2022-08-11T16:41:49.639Z,0.77
2022-08-11T16:44:38.317Z,0.80
2022-08-11T16:47:16.328Z,0.60
2022-08-11T16:49:52.190Z,0.57
2022-08-11T16:52:22.858Z,0.40
2022-08-11T16:54:50.182Z,0.52
2022-08-11T16:57:43.955Z,0.60
2022-08-11T17:00:14.967Z,0.45
2022-08-11T17:03:09.956Z,3.10
2022-08-11T17:06:00.594Z,1.50
2022-08-11T17:08:56.917Z,0.40
2022-08-11T17:11:49.867Z,0.35
2022-08-11T17:14:35.562Z,1.08
2022-08-11T17:17:07.582Z,0.50
2022-08-11T17:20:40.659Z,0.50
2022-08-11T17:22:44.028Z,0.60
2022-08-11T17:25:11.727Z,0.95
2022-08-11T17:27:39.784Z,0.52
2022-08-11T17:30:08.453Z,0.60
2022-08-11T17:33:00.946Z,107.85
2022-08-11T17:38:06.929Z,542.08
2022-08-11T17:40:38.816Z,379.23
2022-08-11T17:43:28.147Z,38.85
2022-08-11T17:46:15.971Z,63.55
2022-08-11T17:48:47.328Z,13.05
2022-08-11T17:51:38.723Z,2.72
2022-08-11T17:54:25.836Z,1.67
2022-08-11T17:57:21.268Z,1.92
2022-08-11T17:59:54.226Z,2.85
2022-08-11T18:05:13.657Z,1.40
2022-08-11T18:08:04.134Z,1.63
2022-08-11T18:10:51.792Z,5.38
2022-08-11T18:13:41.991Z,2.90
2022-08-11T18:16:28.348Z,1.98
2022-08-11T18:19:14.336Z,1.23
2022-08-11T18:22:14.486Z,2.10
2022-08-11T18:25:12.733Z,3.15
2022-08-11T18:28:02.860Z,4.47
2022-08-11T18:31:03.163Z,4.10
2022-08-11T18:34:07.463Z,3.05
2022-08-11T18:37:00.741Z,3.35
2022-08-11T18:39:56.071Z,4.40
2022-08-11T18:42:43.580Z,4.22
2022-08-11T18:45:38.448Z,7.35
2022-08-11T18:48:37.137Z,5.97
2022-08-11T18:51:31.780Z,2.97
2022-08-11T18:54:28.030Z,2.03
2022-08-11T18:57:16.632Z,2.58
2022-08-11T19:00:04.724Z,1.65
2022-08-11T19:02:51.449Z,1.88
2022-08-11T19:06:32.204Z,2.10
2022-08-11T19:08:53.438Z,3.05
2022-08-11T19:11:42.767Z,4.30
2022-08-11T19:14:31.217Z,2.97
2022-08-11T19:17:43.611Z,3.13
2022-08-11T19:20:31.442Z,2.45
2022-08-11T19:23:18.537Z,2.33
2022-08-11T19:26:06.659Z,3.17
2022-08-11T19:28:55.509Z,2.42
2022-08-11T19:31:45.019Z,2.25
2022-08-11T19:34:39.553Z,2.75
2022-08-11T19:37:26.397Z,3.72
2022-08-11T19:40:16.444Z,3.05
2022-08-11T19:43:03.866Z,4.35
2022-08-11T19:46:01.878Z,4.25
2022-08-11T19:48:48.732Z,3.97
2022-08-11T19:51:35.732Z,4.90
2022-08-11T19:54:23.187Z,4.05
2022-08-11T19:57:09.659Z,3.55
2022-08-11T19:59:56.533Z,2.63
2022-08-11T20:02:42.197Z,2.50
2022-08-11T20:05:28.350Z,2.10
2022-08-11T20:08:16.805Z,1.83
2022-08-11T20:11:06.052Z,2.33
2022-08-11T20:13:53.019Z,2.45
2022-08-11T20:16:41.202Z,2.78
2022-08-11T20:19:56.443Z,7.10
2022-08-11T20:22:35.624Z,4.05
2022-08-11T20:25:23.906Z,4.57
2022-08-11T20:28:11.061Z,6.05
2022-08-11T20:30:57.692Z,5.30
2022-08-11T20:33:43.655Z,4.78
2022-08-11T20:36:32.037Z,3.92
2022-08-11T20:39:18.950Z,3.60
2022-08-11T20:42:07.401Z,3.45
2022-08-11T20:44:55.921Z,3.95
2022-08-11T20:47:59.918Z,3.40
2022-08-11T20:50:47.611Z,3.20
2022-08-11T20:53:39.196Z,2.45
2022-08-11T20:56:28.886Z,2.47
2022-08-11T20:59:18.999Z,2.60
2022-08-11T21:02:09.589Z,2.25
2022-08-11T21:05:00.417Z,2.63
2022-08-11T21:08:09.501Z,2.75
2022-08-11T21:11:00.942Z,2.97
2022-08-11T21:13:52.507Z,2.83
2022-08-11T21:16:49.189Z,2.97
2022-08-11T21:20:01.737Z,3.20
2022-08-11T21:23:05.332Z,3.40
2022-08-11T21:26:00.985Z,5.00
2022-08-11T21:28:48.918Z,4.60
2022-08-11T21:31:36.927Z,4.20
2022-08-11T21:34:24.930Z,4.20
2022-08-11T21:37:12.172Z,4.22
2022-08-11T21:40:17.506Z,4.28
2022-08-11T21:43:05.797Z,4.50
2022-08-11T21:45:55.734Z,3.67
2022-08-11T21:48:44.643Z,3.88
2022-08-11T21:51:30.189Z,4.10
2022-08-11T21:54:19.998Z,4.20
2022-08-11T21:57:07.463Z,4.03
2022-08-11T22:00:13.779Z,4.25
2022-08-11T22:03:03.364Z,3.33
2022-08-11T22:05:52.200Z,4.47
2022-08-11T22:08:38.288Z,3.42
2022-08-11T22:11:31.916Z,2.95
2022-08-11T22:14:20.099Z,3.25
2022-08-11T22:17:05.671Z,3.35
2022-08-11T22:19:54.545Z,3.50
2022-08-11T22:22:51.864Z,4.18
2022-08-11T22:25:51.618Z,3.15
2022-08-11T22:28:45.325Z,3.35
2022-08-11T22:31:32.289Z,3.53
2022-08-11T22:34:18.208Z,3.25
2022-08-11T22:37:06.617Z,3.72
2022-08-11T22:39:59.840Z,3.20
2022-08-11T22:42:50.062Z,3.38
2022-08-11T22:45:36.299Z,3.17
2022-08-11T22:48:24.257Z,3.20
2022-08-11T22:51:10.744Z,3.80
2022-08-11T22:53:59.112Z,3.28
2022-08-11T22:56:49.547Z,3.75
2022-08-11T22:59:37.211Z,3.10
2022-08-11T23:02:24.636Z,3.35
2022-08-11T23:05:11.469Z,3.22
2022-08-11T23:07:58.240Z,3.63
2022-08-11T23:10:45.283Z,3.17
2022-08-11T23:13:32.149Z,2.95
2022-08-11T23:16:18.741Z,3.33
2022-08-11T23:19:05.166Z,3.13
2022-08-11T23:21:53.587Z,3.58
2022-08-11T23:24:40.068Z,3.42
2022-08-11T23:27:28.064Z,3.45
2022-08-11T23:30:17.220Z,3.97
2022-08-11T23:33:07.660Z,3.65
2022-08-11T23:36:01.064Z,3.75
2022-08-11T23:38:50.489Z,4.00
2022-08-11T23:41:36.418Z,3.53
2022-08-11T23:44:25.179Z,3.95
2022-08-11T23:47:13.770Z,4.20
2022-08-11T23:50:01.205Z,5.32
2022-08-11T23:52:47.822Z,3.47
2022-08-11T23:55:33.818Z,4.05
2022-08-11T23:58:19.426Z,3.97
